West Coxsackie, New York
Current Conditions -  °F | °C
As of 12:51 AM on Wednesday 22 Oct 2014 (Local Time) from KALB Reporting Station
Overcast Overcast  
Wind Chill: 50°   Ceiling: 900
Heat Index: 50°   Visibility: 3mi
Dew Point: 47°   Wind: 8mph
Humidity: 89%   Direction: 10°N
Pressure: 30.02"   Gusts: NA
Location:  42.36°N, 73.82°W
Report Text: KALB 220451Z 01007KT 3SM BKN009 OVC026 10/08 A3002 RMK AO2 SFC VIS 8 RAE20 SLP165 P0005 T01000083 401330083
Loading
Personal Weather Stations






























Interactive Weather Map New forecast layout! Learn more

10-Day Weather Forecast

Advertisements
Track Severe Weather on mobile